Time;durP1;ratioP1;P1;durP2;ratioP2;P2;SDS_P1;SDS_P2;PMS_P1;PMS_P2;Temp;Humidity;BMP_temperature;BMP_pressure;BME280_temperature;BME280_humidity;BME280_pressure;Samples;Min_cycle;Max_cycle;Signal;HPM_P1;HPM_P2
2022/03/01 00:00:22;;;;;;;16.13;9.05;;;3.10;77.80;;;;;;5052288;28;20041;-64
2022/03/01 00:02:48;;;;;;;13.23;8.45;;;3.10;77.60;;;;;;5052365;28;20125;-64
2022/03/01 00:05:14;;;;;;;15.07;8.57;;;3.10;77.50;;;;;;5031787;28;20029;-64
2022/03/01 00:07:39;;;;;;;14.32;9.02;;;3.00;77.70;;;;;;5034061;28;20024;-63
2022/03/01 00:10:05;;;;;;;17.08;9.68;;;3.00;77.40;;;;;;5051042;28;20118;-63
2022/03/01 00:12:31;;;;;;;13.23;7.93;;;3.00;77.70;;;;;;5043609;28;20063;-64
2022/03/01 00:14:56;;;;;;;17.40;9.73;;;3.00;77.80;;;;;;5048468;28;20095;-64
2022/03/01 00:17:22;;;;;;;16.63;8.18;;;3.00;77.70;;;;;;5042748;28;20099;-63
2022/03/01 00:19:48;;;;;;;13.73;8.10;;;3.00;77.80;;;;;;5050025;28;20094;-63
2022/03/01 00:22:13;;;;;;;13.93;8.10;;;2.90;77.70;;;;;;5051657;28;20033;-63
2022/03/01 00:24:39;;;;;;;15.52;8.25;;;2.90;77.60;;;;;;5051130;28;20043;-64
2022/03/01 00:27:04;;;;;;;12.27;7.22;;;2.90;77.40;;;;;;5037274;28;20083;-63
2022/03/01 00:29:30;;;;;;;13.88;7.88;;;2.90;77.60;;;;;;5044706;28;20044;-64
2022/03/01 00:31:55;;;;;;;14.95;8.32;;;3.00;77.50;;;;;;5046428;28;20430;-64
2022/03/01 00:34:21;;;;;;;13.55;7.88;;;3.00;77.40;;;;;;5047012;28;20440;-64
2022/03/01 00:36:46;;;;;;;14.35;7.70;;;2.90;77.30;;;;;;5022245;28;20467;-64
2022/03/01 00:39:12;;;;;;;15.32;8.20;;;3.00;77.70;;;;;;5041527;28;20033;-63
2022/03/01 00:41:38;;;;;;;12.02;7.60;;;2.90;77.70;;;;;;5042801;28;20412;-63
2022/03/01 00:44:04;;;;;;;13.70;7.65;;;2.90;77.60;;;;;;5040464;28;20113;-63
2022/03/01 00:46:29;;;;;;;12.70;7.15;;;2.90;77.80;;;;;;5051389;28;20170;-63
2022/03/01 00:48:57;;;;;;;14.52;8.40;;;2.90;77.90;;;;;;5049227;28;20479;-64
2022/03/01 00:51:22;;;;;;;16.25;8.68;;;3.00;77.70;;;;;;5051540;28;20848;-64
2022/03/01 00:53:48;;;;;;;13.98;8.05;;;2.90;78.20;;;;;;5026955;28;20029;-64
2022/03/01 00:56:13;;;;;;;13.32;7.53;;;2.80;78.30;;;;;;5031066;28;20018;-64
2022/03/01 00:58:39;;;;;;;15.05;8.07;;;2.80;77.90;;;;;;5018213;28;20025;-64
2022/03/01 01:01:04;;;;;;;13.32;7.38;;;2.90;78.40;;;;;;5032381;28;20027;-64
2022/03/01 01:03:30;;;;;;;14.55;7.82;;;2.90;78.20;;;;;;5033146;28;20037;-64
2022/03/01 01:05:55;;;;;;;15.95;7.88;;;2.80;78.10;;;;;;5031842;28;20030;-64
2022/03/01 01:08:21;;;;;;;13.93;8.55;;;2.80;78.00;;;;;;5014835;28;20375;-63
2022/03/01 01:10:47;;;;;;;17.02;8.85;;;2.80;78.20;;;;;;5031395;28;20025;-63
2022/03/01 01:13:14;;;;;;;14.38;8.52;;;2.80;78.40;;;;;;5043880;28;20579;-63
2022/03/01 01:15:40;;;;;;;13.65;8.45;;;2.80;78.20;;;;;;5030001;28;20108;-63
2022/03/01 01:18:05;;;;;;;13.80;7.47;;;2.80;78.30;;;;;;5032254;28;20037;-63
2022/03/01 01:20:31;;;;;;;13.50;8.48;;;2.80;78.40;;;;;;5050678;28;20082;-64
2022/03/01 01:22:56;;;;;;;16.55;8.77;;;2.80;78.50;;;;;;5050187;28;20083;-63
2022/03/01 01:25:23;;;;;;;14.32;8.80;;;2.80;78.40;;;;;;5050439;28;20884;-63
2022/03/01 01:27:51;;;;;;;14.50;8.30;;;2.70;78.40;;;;;;5051138;28;20032;-64
2022/03/01 01:30:21;;;;;;;15.93;8.57;;;2.70;78.10;;;;;;5029073;28;20022;-64
2022/03/01 01:32:48;;;;;;;15.98;8.95;;;2.70;78.00;;;;;;5030895;28;20029;-64
2022/03/01 01:35:15;;;;;;;16.75;8.85;;;2.70;77.90;;;;;;5049393;28;20556;-64
2022/03/01 01:37:40;;;;;;;14.82;9.43;;;2.60;77.80;;;;;;5032980;28;20025;-64
2022/03/01 01:40:12;;;;;;;15.40;9.20;;;2.70;77.70;;;;;;5049410;28;20526;-64
2022/03/01 01:42:38;;;;;;;16.17;9.43;;;2.60;77.80;;;;;;5050876;28;20025;-63
2022/03/01 01:45:05;;;;;;;15.10;8.80;;;2.60;77.70;;;;;;5031660;28;20091;-63
2022/03/01 01:47:31;;;;;;;17.05;9.07;;;2.50;77.70;;;;;;5032702;28;20527;-63
2022/03/01 01:49:56;;;;;;;19.38;10.10;;;2.50;77.70;;;;;;5049559;28;20052;-63
2022/03/01 01:52:24;;;;;;;16.73;8.77;;;2.50;77.80;;;;;;5050099;28;20036;-63
2022/03/01 01:54:49;;;;;;;14.30;8.93;;;2.50;77.90;;;;;;5049728;28;20041;-63
2022/03/01 01:57:17;;;;;;;15.25;9.20;;;2.50;78.00;;;;;;5050191;28;20074;-63
2022/03/01 01:59:43;;;;;;;14.27;9.15;;;2.40;77.90;;;;;;5031260;28;20034;-63
2022/03/01 02:02:17;;;;;;;15.73;9.07;;;2.40;77.90;;;;;;5045065;28;20142;-62
2022/03/01 02:04:43;;;;;;;15.15;8.90;;;2.40;78.00;;;;;;5049541;28;20033;-63
2022/03/01 02:07:10;;;;;;;16.33;9.05;;;2.40;78.00;;;;;;5052854;28;20048;-63
2022/03/01 02:09:36;;;;;;;15.90;9.70;;;2.40;78.00;;;;;;5053409;28;20033;-63
2022/03/01 02:12:02;;;;;;;16.83;9.25;;;2.30;78.00;;;;;;5042028;28;20044;-64
2022/03/01 02:14:29;;;;;;;14.77;8.45;;;2.30;78.00;;;;;;5039205;28;20037;-64
2022/03/01 02:16:55;;;;;;;14.00;8.75;;;2.30;78.00;;;;;;5034355;28;20496;-63
2022/03/01 02:19:20;;;;;;;15.00;8.60;;;2.30;78.00;;;;;;5045775;28;20052;-63
2022/03/01 02:21:51;;;;;;;11.05;7.40;;;2.30;78.00;;;;;;5054367;28;20025;-64
2022/03/01 02:24:18;;;;;;;13.63;8.02;;;2.30;78.10;;;;;;5051259;28;20033;-63
2022/03/01 02:26:44;;;;;;;13.45;7.88;;;2.20;78.00;;;;;;5051411;28;20037;-62
2022/03/01 02:29:09;;;;;;;15.52;9.15;;;2.20;78.10;;;;;;5053337;28;20117;-62
2022/03/01 02:31:35;;;;;;;13.13;8.90;;;2.20;78.10;;;;;;5051426;28;20027;-62
2022/03/01 02:34:01;;;;;;;14.65;8.68;;;2.20;78.30;;;;;;5034292;28;20037;-63
2022/03/01 02:36:27;;;;;;;12.77;8.70;;;2.10;78.20;;;;;;5051464;28;20074;-63
2022/03/01 02:38:52;;;;;;;14.07;8.85;;;2.10;78.30;;;;;;5037530;28;20040;-63
2022/03/01 02:41:18;;;;;;;13.55;8.55;;;2.10;78.40;;;;;;5034797;28;20040;-63
2022/03/01 02:43:43;;;;;;;15.23;8.50;;;2.10;78.50;;;;;;5051673;28;20025;-63
2022/03/01 02:46:09;;;;;;;15.35;8.85;;;2.00;78.50;;;;;;5053736;28;20440;-64
2022/03/01 02:48:34;;;;;;;13.68;8.18;;;2.00;78.60;;;;;;5052152;28;20037;-64
2022/03/01 02:51:00;;;;;;;17.52;8.77;;;2.00;78.60;;;;;;5039696;28;20037;-63
2022/03/01 02:53:26;;;;;;;15.10;8.63;;;2.00;78.70;;;;;;5033833;28;20075;-63
2022/03/01 02:55:51;;;;;;;13.90;8.52;;;1.90;78.60;;;;;;5034358;28;20037;-63
2022/03/01 02:58:17;;;;;;;15.52;8.70;;;1.90;78.70;;;;;;5047075;28;20036;-63
2022/03/01 03:00:44;;;;;;;15.98;8.98;;;1.90;78.80;;;;;;5051050;28;20048;-64
2022/03/01 03:03:11;;;;;;;16.08;8.93;;;1.90;78.80;;;;;;5049641;28;20053;-63
2022/03/01 03:05:37;;;;;;;18.38;8.57;;;1.90;78.90;;;;;;5053348;28;20062;-63
2022/03/01 03:08:03;;;;;;;14.70;8.55;;;1.80;78.90;;;;;;5052716;28;20039;-64
2022/03/01 03:10:28;;;;;;;15.35;9.57;;;1.80;79.00;;;;;;5053376;28;20017;-63
2022/03/01 03:12:53;;;;;;;16.45;9.73;;;1.90;79.00;;;;;;5045690;28;20029;-63
2022/03/01 03:15:19;;;;;;;14.00;8.48;;;1.80;79.00;;;;;;5033103;28;20021;-63
2022/03/01 03:17:45;;;;;;;16.55;9.35;;;1.80;79.00;;;;;;5041170;28;20021;-64
2022/03/01 03:20:10;;;;;;;16.02;9.40;;;1.80;79.10;;;;;;5053225;28;20037;-63
2022/03/01 03:22:36;;;;;;;16.27;9.52;;;1.80;79.60;;;;;;5050399;28;20093;-64
2022/03/01 03:25:02;;;;;;;15.63;9.55;;;1.80;79.10;;;;;;5033136;28;20083;-64
2022/03/01 03:27:28;;;;;;;15.60;8.57;;;1.80;79.10;;;;;;5043204;28;20446;-63
2022/03/01 03:29:53;;;;;;;18.02;9.43;;;1.80;79.20;;;;;;5033512;28;20108;-63
2022/03/01 03:32:19;;;;;;;20.25;10.20;;;1.80;79.30;;;;;;5038821;28;20396;-63
2022/03/01 03:34:44;;;;;;;16.98;10.18;;;1.80;79.40;;;;;;5034694;28;20116;-63
2022/03/01 03:37:10;;;;;;;15.23;9.50;;;1.80;79.50;;;;;;5037253;28;20098;-63
2022/03/01 03:39:35;;;;;;;17.52;9.55;;;1.70;79.40;;;;;;5049980;28;20048;-63
2022/03/01 03:42:01;;;;;;;17.58;10.40;;;1.80;79.60;;;;;;5036520;28;20029;-64
2022/03/01 03:44:26;;;;;;;15.68;9.27;;;1.80;79.70;;;;;;5052580;28;20043;-63
2022/03/01 03:46:52;;;;;;;14.10;8.70;;;1.80;79.80;;;;;;5049081;28;20025;-63
2022/03/01 03:49:19;;;;;;;16.52;9.15;;;1.80;79.80;;;;;;5033312;28;20026;-63
2022/03/01 03:51:45;;;;;;;17.02;8.75;;;1.80;79.80;;;;;;5033404;28;20431;-64
2022/03/01 03:54:10;;;;;;;15.13;10.40;;;1.70;79.70;;;;;;5047319;28;20467;-64
2022/03/01 03:56:36;;;;;;;16.60;9.13;;;1.80;79.80;;;;;;5032528;28;20026;-63
2022/03/01 03:59:01;;;;;;;16.85;9.07;;;1.70;79.70;;;;;;5048390;28;20056;-64
2022/03/01 04:01:27;;;;;;;16.00;8.88;;;1.70;79.80;;;;;;5032067;28;20022;-62
2022/03/01 04:03:52;;;;;;;19.75;9.30;;;1.70;79.80;;;;;;5041391;28;20036;-63
2022/03/01 04:06:18;;;;;;;15.55;9.30;;;1.70;79.90;;;;;;5034628;28;20513;-64
2022/03/01 04:08:43;;;;;;;15.25;9.23;;;1.60;79.90;;;;;;5047833;28;20115;-63
2022/03/01 04:11:09;;;;;;;17.58;9.38;;;1.70;80.00;;;;;;5045913;28;20112;-63
2022/03/01 04:13:34;;;;;;;16.67;8.80;;;1.70;80.00;;;;;;5049764;28;20021;-63
2022/03/01 04:16:00;;;;;;;18.52;9.05;;;1.70;80.00;;;;;;5052421;28;20068;-63
2022/03/01 04:18:26;;;;;;;16.58;8.93;;;1.70;80.00;;;;;;5050904;28;20027;-63
2022/03/01 04:20:51;;;;;;;14.85;9.23;;;1.70;80.00;;;;;;5033411;28;20128;-63
2022/03/01 04:23:17;;;;;;;13.80;8.35;;;1.70;80.00;;;;;;5045580;28;20465;-63
2022/03/01 04:25:42;;;;;;;15.95;8.68;;;1.70;80.50;;;;;;5050272;28;20033;-63
2022/03/01 04:28:08;;;;;;;14.02;7.80;;;1.70;80.00;;;;;;5041557;28;20573;-63
2022/03/01 04:30:34;;;;;;;14.27;8.82;;;1.60;79.90;;;;;;5049195;28;20028;-64
2022/03/01 04:32:59;;;;;;;17.40;9.90;;;1.70;80.00;;;;;;5047156;28;20036;-64
2022/03/01 04:35:27;;;;;;;15.88;8.07;;;1.70;80.00;;;;;;5049139;28;20471;-63
2022/03/01 04:37:53;;;;;;;15.95;8.85;;;1.70;80.00;;;;;;5042712;28;20132;-63
2022/03/01 04:40:19;;;;;;;14.52;8.70;;;1.70;80.00;;;;;;5050097;28;20116;-63
2022/03/01 04:42:44;;;;;;;14.30;8.88;;;1.70;80.00;;;;;;5040555;28;20041;-63
2022/03/01 04:45:11;;;;;;;14.52;9.25;;;1.60;80.00;;;;;;5031870;28;20039;-63
2022/03/01 04:47:37;;;;;;;17.05;9.45;;;1.70;80.00;;;;;;5039758;28;20049;-63
2022/03/01 04:50:05;;;;;;;16.85;9.10;;;1.60;79.90;;;;;;5031669;28;20045;-63
2022/03/01 04:52:30;;;;;;;16.48;8.60;;;1.60;80.00;;;;;;5047590;28;20388;-63
2022/03/01 04:54:56;;;;;;;13.02;7.97;;;1.70;79.90;;;;;;5031626;28;20038;-63
2022/03/01 04:57:21;;;;;;;17.67;8.85;;;1.70;79.90;;;;;;5048343;28;20029;-63
2022/03/01 04:59:47;;;;;;;15.02;8.50;;;1.70;79.90;;;;;;5046863;28;20530;-63
2022/03/01 05:02:12;;;;;;;15.80;8.90;;;1.60;79.80;;;;;;5036236;28;20048;-63
2022/03/01 05:04:38;;;;;;;17.38;8.15;;;1.70;79.80;;;;;;5034034;28;20485;-63
2022/03/01 05:07:03;;;;;;;15.52;7.90;;;1.70;79.80;;;;;;5032347;28;20105;-63
2022/03/01 05:09:29;;;;;;;15.45;8.48;;;1.70;79.80;;;;;;5030511;28;20393;-63
2022/03/01 05:11:54;;;;;;;15.07;8.63;;;1.60;79.80;;;;;;5033435;28;20556;-64
2022/03/01 05:14:20;;;;;;;14.07;9.05;;;1.70;79.70;;;;;;5048192;28;20538;-64
2022/03/01 05:16:46;;;;;;;15.77;9.93;;;1.70;79.70;;;;;;5046112;28;20033;-64
2022/03/01 05:19:13;;;;;;;16.25;8.50;;;1.70;79.70;;;;;;5050998;28;20452;-63
2022/03/01 05:21:39;;;;;;;16.08;8.55;;;1.60;79.70;;;;;;5049712;28;20032;-63
2022/03/01 05:24:05;;;;;;;15.70;8.45;;;1.70;79.80;;;;;;5048590;28;20029;-64
2022/03/01 05:26:31;;;;;;;18.10;8.57;;;1.70;79.80;;;;;;5030812;28;20048;-63
2022/03/01 05:28:57;;;;;;;14.25;7.97;;;1.60;79.70;;;;;;5036491;28;20030;-63
2022/03/01 05:31:23;;;;;;;12.45;7.95;;;1.60;79.70;;;;;;5031009;28;20033;-64
2022/03/01 05:33:49;;;;;;;15.02;8.60;;;1.60;79.70;;;;;;5037491;28;20034;-63
2022/03/01 05:36:15;;;;;;;17.92;8.70;;;1.70;79.70;;;;;;5045445;28;20029;-64
2022/03/01 05:38:41;;;;;;;20.38;8.63;;;1.70;79.70;;;;;;5049160;28;20422;-64
2022/03/01 05:41:08;;;;;;;15.82;8.90;;;1.70;79.60;;;;;;5052003;28;20059;-64
2022/03/01 05:43:34;;;;;;;17.23;8.15;;;1.70;79.60;;;;;;5044262;28;20079;-64
2022/03/01 05:46:00;;;;;;;16.08;8.73;;;1.60;79.60;;;;;;5035413;28;20457;-64
2022/03/01 05:48:26;;;;;;;16.42;10.27;;;1.70;79.60;;;;;;5042652;28;20084;-64
2022/03/01 05:50:52;;;;;;;14.30;8.18;;;1.60;79.60;;;;;;5035590;28;20536;-64
2022/03/01 05:53:18;;;;;;;19.08;8.57;;;1.60;79.70;;;;;;5051910;28;20037;-64
2022/03/01 05:55:44;;;;;;;20.10;8.43;;;1.60;79.60;;;;;;5054640;28;20051;-65
2022/03/01 05:58:10;;;;;;;16.00;9.00;;;1.70;79.60;;;;;;5040018;28;20477;-64
2022/03/01 06:00:35;;;;;;;17.17;8.45;;;1.60;79.60;;;;;;5035267;28;20056;-63
2022/03/01 06:03:01;;;;;;;15.23;7.68;;;1.60;79.60;;;;;;5049776;28;20045;-64
2022/03/01 06:05:28;;;;;;;14.57;8.57;;;1.70;79.70;;;;;;5038984;28;20029;-64
2022/03/01 06:07:54;;;;;;;18.55;8.68;;;1.70;79.60;;;;;;5034270;28;20068;-64
2022/03/01 06:10:20;;;;;;;16.92;8.82;;;1.70;79.70;;;;;;5047526;28;20025;-64
2022/03/01 06:12:45;;;;;;;13.73;8.43;;;1.60;79.70;;;;;;5052058;28;20167;-64
2022/03/01 06:15:10;;;;;;;14.90;8.55;;;1.70;79.70;;;;;;5054110;28;20469;-64
2022/03/01 06:17:37;;;;;;;16.42;9.25;;;1.70;79.80;;;;;;5042681;28;20044;-64
2022/03/01 06:20:03;;;;;;;15.32;9.73;;;1.70;79.70;;;;;;5034850;28;20041;-65
2022/03/01 06:22:29;;;;;;;17.67;9.07;;;1.70;79.70;;;;;;5034552;28;20033;-65
2022/03/01 06:24:55;;;;;;;20.73;9.35;;;1.70;79.70;;;;;;5045064;28;20392;-63
2022/03/01 06:27:21;;;;;;;15.23;8.25;;;1.70;79.60;;;;;;5053057;28;20469;-64
2022/03/01 06:29:47;;;;;;;15.02;8.05;;;1.70;79.70;;;;;;5053923;28;20029;-63
2022/03/01 06:32:12;;;;;;;18.45;8.75;;;1.70;79.70;;;;;;5040834;28;20116;-63
2022/03/01 06:34:38;;;;;;;16.33;9.98;;;1.70;79.70;;;;;;5034217;28;20422;-64
2022/03/01 06:37:03;;;;;;;15.35;8.13;;;1.80;79.90;;;;;;5039100;28;20073;-63
2022/03/01 06:39:29;;;;;;;21.52;9.98;;;1.70;79.80;;;;;;5033942;28;20545;-63
2022/03/01 06:41:55;;;;;;;18.85;9.15;;;1.70;79.70;;;;;;5038986;28;20029;-64
2022/03/01 06:44:21;;;;;;;21.77;9.82;;;1.80;79.80;;;;;;5049226;28;20029;-64
2022/03/01 06:46:46;;;;;;;20.20;10.82;;;1.80;79.80;;;;;;5049610;28;20111;-64
2022/03/01 06:49:11;;;;;;;18.75;9.88;;;1.80;79.80;;;;;;5038427;28;20052;-64
2022/03/01 06:51:37;;;;;;;17.70;9.45;;;1.80;79.70;;;;;;5044270;28;20025;-64
2022/03/01 06:54:02;;;;;;;20.73;10.50;;;1.80;79.60;;;;;;5035802;28;20539;-63
2022/03/01 06:56:28;;;;;;;20.33;9.10;;;1.80;79.60;;;;;;5034094;28;20033;-63
2022/03/01 06:58:54;;;;;;;19.58;9.73;;;1.80;79.60;;;;;;5016229;28;20083;-63
2022/03/01 07:01:20;;;;;;;16.92;8.95;;;1.80;79.60;;;;;;5052353;28;20045;-63
2022/03/01 07:03:46;;;;;;;15.48;8.38;;;1.90;79.70;;;;;;5049332;28;20909;-63
2022/03/01 07:06:12;;;;;;;18.23;9.38;;;1.90;79.60;;;;;;5036894;28;20120;-64
2022/03/01 07:08:38;;;;;;;17.02;8.93;;;1.90;79.50;;;;;;5044414;28;20029;-63
2022/03/01 07:11:03;;;;;;;16.77;9.70;;;2.00;79.60;;;;;;5051652;28;20031;-63
2022/03/01 07:13:29;;;;;;;17.92;8.10;;;2.00;80.10;;;;;;5049635;28;20028;-63
2022/03/01 07:15:54;;;;;;;17.20;9.55;;;2.00;79.50;;;;;;5037280;28;20087;-64
2022/03/01 07:18:20;;;;;;;15.00;8.98;;;2.00;79.30;;;;;;5047663;28;20017;-64
2022/03/01 07:20:45;;;;;;;21.40;9.73;;;2.10;79.20;;;;;;5048947;28;20033;-63
2022/03/01 07:23:11;;;;;;;17.65;8.75;;;2.10;79.10;;;;;;5046187;28;20384;-63
2022/03/01 07:25:37;;;;;;;18.75;8.95;;;2.10;79.10;;;;;;5052169;28;20041;-64
2022/03/01 07:28:03;;;;;;;15.27;8.80;;;2.10;79.10;;;;;;5037247;28;20040;-63
2022/03/01 07:30:29;;;;;;;16.08;7.63;;;2.20;78.90;;;;;;5047859;28;20023;-63
2022/03/01 07:32:56;;;;;;;19.65;9.48;;;2.20;79.30;;;;;;5055976;28;20115;-64
2022/03/01 07:35:23;;;;;;;21.60;8.50;;;2.30;78.80;;;;;;5051848;28;20102;-63
2022/03/01 07:37:49;;;;;;;15.60;8.68;;;2.30;78.80;;;;;;5041569;28;20044;-64
2022/03/01 07:40:16;;;;;;;14.07;8.15;;;2.40;78.80;;;;;;5033479;28;20047;-64
2022/03/01 07:42:43;;;;;;;16.70;7.78;;;2.40;78.80;;;;;;5045131;28;20029;-64
2022/03/01 07:45:09;;;;;;;15.10;7.60;;;2.50;78.80;;;;;;5038019;28;20028;-65
2022/03/01 07:47:34;;;;;;;14.88;7.57;;;2.60;78.80;;;;;;5039500;28;20469;-65
2022/03/01 07:50:00;;;;;;;14.07;8.02;;;2.60;78.80;;;;;;5039846;28;20029;-64
2022/03/01 07:52:25;;;;;;;13.52;7.38;;;2.70;78.80;;;;;;5038366;28;20480;-65
2022/03/01 07:54:51;;;;;;;14.90;7.70;;;2.80;78.70;;;;;;5051828;28;20503;-65
2022/03/01 07:57:17;;;;;;;13.50;8.40;;;2.80;78.40;;;;;;5048480;28;20032;-65
2022/03/01 07:59:43;;;;;;;11.93;7.80;;;2.90;78.30;;;;;;5050666;28;20080;-65
2022/03/01 08:02:08;;;;;;;14.02;7.22;;;2.90;78.10;;;;;;5040862;28;20034;-65
2022/03/01 08:04:34;;;;;;;15.63;7.35;;;3.00;77.90;;;;;;5043568;28;20033;-64
2022/03/01 08:07:00;;;;;;;12.40;7.53;;;3.10;77.90;;;;;;5046342;28;20162;-65
2022/03/01 08:09:26;;;;;;;15.32;7.50;;;3.10;77.70;;;;;;5044043;28;20333;-64
2022/03/01 08:11:51;;;;;;;12.93;7.20;;;3.20;77.60;;;;;;5038539;28;20044;-65
2022/03/01 08:14:17;;;;;;;14.90;7.80;;;3.20;77.50;;;;;;5042010;28;20009;-64
2022/03/01 08:16:42;;;;;;;13.90;7.50;;;3.40;78.00;;;;;;5045390;28;20033;-64
2022/03/01 08:19:08;;;;;;;17.33;7.80;;;3.40;77.90;;;;;;5050277;28;20037;-65
2022/03/01 08:21:33;;;;;;;11.57;7.40;;;3.50;77.60;;;;;;5036850;28;20111;-64
2022/03/01 08:23:59;;;;;;;13.35;7.03;;;3.60;77.80;;;;;;5051039;28;20029;-64
2022/03/01 08:26:24;;;;;;;12.65;7.93;;;3.60;77.80;;;;;;5024687;28;20480;-64
2022/03/01 08:28:50;;;;;;;13.18;7.43;;;3.70;77.50;;;;;;5056934;28;20013;-64
2022/03/01 08:31:16;;;;;;;15.00;7.45;;;3.80;77.20;;;;;;5046446;28;20029;-64
2022/03/01 08:33:41;;;;;;;11.38;7.13;;;3.90;76.70;;;;;;5044858;28;20531;-64
2022/03/01 08:36:08;;;;;;;13.90;7.25;;;3.90;76.40;;;;;;5049401;28;20433;-64
2022/03/01 08:38:34;;;;;;;11.07;6.15;;;3.90;76.60;;;;;;5032287;28;20032;-64
2022/03/01 08:40:59;;;;;;;12.15;6.60;;;4.00;77.50;;;;;;5057461;28;20119;-64
2022/03/01 08:43:25;;;;;;;11.85;6.78;;;4.20;77.80;;;;;;5061560;28;20110;-64
2022/03/01 08:45:52;;;;;;;12.52;7.25;;;4.20;77.50;;;;;;5042433;28;20032;-65
2022/03/01 08:48:18;;;;;;;13.25;7.97;;;4.30;77.60;;;;;;5031388;28;20112;-64
2022/03/01 08:50:43;;;;;;;11.75;7.13;;;4.30;76.80;;;;;;5049873;28;20140;-64
2022/03/01 08:53:09;;;;;;;12.05;6.55;;;4.40;76.50;;;;;;5031075;28;20032;-63
2022/03/01 08:55:35;;;;;;;14.32;7.22;;;4.40;76.10;;;;;;5071789;28;20032;-64
2022/03/01 08:58:01;;;;;;;11.75;6.35;;;4.40;75.70;;;;;;5046873;28;20461;-64
2022/03/01 09:00:27;;;;;;;12.00;6.97;;;4.50;75.70;;;;;;5071335;28;20037;-65
2022/03/01 09:02:53;;;;;;;13.27;6.60;;;4.50;75.80;;;;;;5040193;28;20083;-64
2022/03/01 09:05:18;;;;;;;11.50;6.88;;;4.50;75.30;;;;;;5045447;28;20053;-64
2022/03/01 09:07:44;;;;;;;13.13;6.80;;;4.70;75.20;;;;;;5036384;28;20018;-64
2022/03/01 09:10:10;;;;;;;13.38;7.80;;;4.60;74.90;;;;;;5036108;28;20413;-66
2022/03/01 09:12:36;;;;;;;9.18;6.25;;;4.70;74.90;;;;;;5018176;28;20204;-65
2022/03/01 09:15:03;;;;;;;13.13;6.88;;;4.70;74.80;;;;;;5053262;28;20030;-64
2022/03/01 09:17:28;;;;;;;13.52;6.15;;;4.80;74.30;;;;;;5054307;28;20669;-64
2022/03/01 09:19:54;;;;;;;13.65;7.07;;;4.80;74.80;;;;;;5064897;28;20116;-64
2022/03/01 09:22:19;;;;;;;11.85;6.80;;;4.90;74.50;;;;;;5028835;28;20048;-64
2022/03/01 09:24:45;;;;;;;10.35;6.88;;;5.00;74.30;;;;;;5045367;28;20028;-64
2022/03/01 09:27:11;;;;;;;12.70;6.80;;;5.10;74.40;;;;;;5049208;28;20175;-64
2022/03/01 09:29:36;;;;;;;12.45;6.85;;;5.10;73.70;;;;;;5036263;28;20017;-64
2022/03/01 09:32:03;;;;;;;11.73;6.85;;;5.10;73.90;;;;;;5054176;28;20037;-64
2022/03/01 09:34:29;;;;;;;15.95;6.60;;;5.20;73.70;;;;;;5065560;28;20020;-64
2022/03/01 09:36:55;;;;;;;11.55;6.47;;;5.20;73.50;;;;;;5044700;28;20033;-63
2022/03/01 09:39:21;;;;;;;10.93;6.28;;;5.20;73.20;;;;;;5066806;28;20040;-64
2022/03/01 09:41:47;;;;;;;9.88;5.95;;;5.30;73.30;;;;;;5046508;28;20379;-64
2022/03/01 09:44:14;;;;;;;11.02;6.55;;;5.30;73.30;;;;;;5050305;28;20029;-65
2022/03/01 09:46:40;;;;;;;13.30;6.97;;;5.40;73.40;;;;;;5035455;28;20083;-64
2022/03/01 09:49:06;;;;;;;12.77;7.40;;;5.40;73.10;;;;;;5047751;28;20029;-64
2022/03/01 09:51:34;;;;;;;15.10;7.38;;;5.50;72.90;;;;;;5050853;28;20464;-64
2022/03/01 09:53:59;;;;;;;12.07;6.72;;;5.50;72.60;;;;;;5035473;28;20088;-64
2022/03/01 09:56:25;;;;;;;11.60;6.97;;;5.60;72.60;;;;;;5042592;28;20033;-62
2022/03/01 09:58:51;;;;;;;11.43;7.10;;;5.60;72.40;;;;;;5048270;28;20021;-63
2022/03/01 10:01:17;;;;;;;11.73;6.60;;;5.70;72.40;;;;;;5048812;28;20048;-63
2022/03/01 10:03:48;;;;;;;12.10;6.75;;;5.70;71.90;;;;;;5036652;28;20049;-63
2022/03/01 10:06:15;;;;;;;11.30;6.75;;;5.80;72.40;;;;;;5045706;28;20033;-63
2022/03/01 10:08:41;;;;;;;14.05;6.45;;;5.80;72.00;;;;;;5046412;28;20025;-63
2022/03/01 10:11:08;;;;;;;9.93;6.43;;;5.90;71.60;;;;;;5036532;28;20021;-63
2022/03/01 10:13:37;;;;;;;11.15;6.90;;;5.90;71.50;;;;;;5039545;28;20105;-63
2022/03/01 10:16:11;;;;;;;14.35;7.07;;;6.00;70.70;;;;;;5064646;28;20040;-63
2022/03/01 10:18:40;;;;;;;15.77;7.15;;;6.00;71.10;;;;;;5047464;28;20514;-63
2022/03/01 10:21:09;;;;;;;11.88;6.05;;;6.00;70.90;;;;;;5050642;28;20033;-63
2022/03/01 10:23:35;;;;;;;13.18;6.78;;;6.10;70.70;;;;;;5040604;28;20027;-63
2022/03/01 10:26:25;;;;;;;11.75;7.00;;;6.10;70.60;;;;;;5031012;28;20037;-63
2022/03/01 10:28:54;;;;;;;11.27;6.40;;;6.10;70.00;;;;;;5035041;28;20527;-63
2022/03/01 10:31:25;;;;;;;12.27;6.70;;;6.20;69.70;;;;;;5036738;28;20033;-63
2022/03/01 10:33:56;;;;;;;11.30;6.50;;;6.30;70.20;;;;;;5052038;28;20055;-63
2022/03/01 10:36:23;;;;;;;12.77;7.65;;;6.30;69.90;;;;;;5048641;28;20033;-62
2022/03/01 10:38:58;;;;;;;9.93;6.15;;;6.40;69.80;;;;;;5036628;28;20032;-63
2022/03/01 10:41:27;;;;;;;11.27;7.70;;;6.40;68.90;;;;;;5037897;28;20072;-62
2022/03/01 10:43:57;;;;;;;10.45;6.70;;;6.40;68.70;;;;;;5046413;28;20087;-62
2022/03/01 10:46:23;;;;;;;11.00;6.80;;;6.50;67.90;;;;;;5053075;28;20071;-63
2022/03/01 10:49:08;;;;;;;10.07;6.28;;;6.50;68.10;;;;;;5071492;28;20052;-63
2022/03/01 10:51:35;;;;;;;10.20;5.95;;;6.60;67.80;;;;;;5060069;28;20388;-63
2022/03/01 10:54:00;;;;;;;9.45;6.20;;;6.60;68.00;;;;;;5034146;28;20034;-62
2022/03/01 10:56:37;;;;;;;10.07;6.05;;;6.70;68.10;;;;;;5051667;28;20024;-62
2022/03/01 10:59:04;;;;;;;9.57;5.70;;;6.70;68.10;;;;;;5073949;28;20025;-62
2022/03/01 11:01:30;;;;;;;9.98;5.85;;;6.80;68.20;;;;;;5062141;28;20030;-62
2022/03/01 11:03:55;;;;;;;14.07;7.03;;;6.90;68.10;;;;;;5033916;28;20041;-62
2022/03/01 11:06:22;;;;;;;10.25;5.70;;;7.00;67.50;;;;;;5025849;28;20032;-62
2022/03/01 11:08:48;;;;;;;9.90;5.63;;;7.00;67.90;;;;;;5055448;28;20021;-62
2022/03/01 11:11:14;;;;;;;10.57;6.28;;;7.10;67.20;;;;;;5053716;28;20024;-62
2022/03/01 11:13:44;;;;;;;10.07;5.80;;;7.10;66.70;;;;;;5072335;28;20012;-62
2022/03/01 11:16:36;;;;;;;10.75;5.97;;;7.20;66.50;;;;;;5071163;28;20083;-63
2022/03/01 11:19:40;;;;;;;9.18;5.50;;;7.20;66.10;;;;;;5062149;28;20033;-62
2022/03/01 11:22:21;;;;;;;10.63;6.47;;;7.30;65.60;;;;;;5033149;28;20033;-64
2022/03/01 11:24:48;;;;;;;9.15;5.53;;;7.30;64.30;;;;;;5040132;28;20030;-63
2022/03/01 11:27:22;;;;;;;9.23;5.70;;;7.40;65.00;;;;;;5043331;28;20028;-63
2022/03/01 11:29:49;;;;;;;10.93;5.95;;;7.40;64.30;;;;;;5042776;28;20075;-63
2022/03/01 11:32:16;;;;;;;6.68;5.03;;;7.40;64.60;;;;;;5025873;28;20029;-63
2022/03/01 11:34:43;;;;;;;8.50;5.90;;;7.50;65.10;;;;;;5036964;28;20030;-63
2022/03/01 11:37:18;;;;;;;9.32;5.70;;;7.60;64.20;;;;;;5061284;28;20092;-62
2022/03/01 11:39:54;;;;;;;11.18;6.00;;;7.70;63.30;;;;;;5052890;28;20036;-62
2022/03/01 11:42:21;;;;;;;8.30;5.30;;;7.60;62.60;;;;;;5053112;28;20035;-62
2022/03/01 11:44:52;;;;;;;8.25;4.95;;;7.70;62.00;;;;;;5060097;28;20029;-63
2022/03/01 11:47:34;;;;;;;9.68;5.45;;;7.80;61.70;;;;;;5072738;28;20051;-63
2022/03/01 11:50:11;;;;;;;9.00;5.30;;;7.80;61.70;;;;;;5042516;28;20064;-63
2022/03/01 11:52:55;;;;;;;7.75;5.20;;;7.90;61.90;;;;;;5052593;28;20167;-63
2022/03/01 11:55:23;;;;;;;7.32;4.60;;;7.90;61.30;;;;;;5068996;28;20032;-63
2022/03/01 11:57:51;;;;;;;10.00;5.22;;;8.00;60.80;;;;;;5072451;28;20029;-63
2022/03/01 12:00:19;;;;;;;6.63;4.30;;;8.10;59.80;;;;;;5053940;28;21345;-63
2022/03/01 12:02:46;;;;;;;6.82;4.75;;;8.10;60.70;;;;;;5052279;28;20496;-63
2022/03/01 12:05:23;;;;;;;7.32;4.70;;;8.10;60.60;;;;;;5046839;28;20036;-63
2022/03/01 12:07:51;;;;;;;9.82;5.15;;;8.20;60.10;;;;;;5046993;28;20021;-63
2022/03/01 12:10:23;;;;;;;6.95;4.80;;;8.20;59.60;;;;;;5050002;28;20033;-63
2022/03/01 12:12:52;;;;;;;8.50;4.15;;;8.20;58.40;;;;;;5044190;28;20029;-63
2022/03/01 12:15:33;;;;;;;7.05;4.80;;;8.30;59.30;;;;;;5034414;28;20065;-63
2022/03/01 12:18:11;;;;;;;9.80;4.93;;;8.30;58.90;;;;;;5047290;28;20047;-63
2022/03/01 12:20:39;;;;;;;9.23;4.38;;;8.40;58.70;;;;;;5036140;28;20037;-63
2022/03/01 12:23:06;;;;;;;16.02;4.88;;;8.40;58.80;;;;;;5017482;28;20419;-63
2022/03/01 12:25:37;;;;;;;8.07;4.72;;;8.40;58.60;;;;;;5051346;28;20025;-63
2022/03/01 12:28:05;;;;;;;7.90;4.50;;;8.50;58.10;;;;;;5025790;28;20912;-63
2022/03/01 12:30:37;;;;;;;7.03;4.45;;;8.50;57.80;;;;;;5048254;28;20028;-63
2022/03/01 12:33:04;;;;;;;9.35;4.20;;;8.50;57.60;;;;;;5069957;28;20032;-63
2022/03/01 12:35:30;;;;;;;10.07;5.25;;;8.50;57.60;;;;;;5055115;28;20028;-63
2022/03/01 12:38:15;;;;;;;8.10;4.38;;;8.60;58.00;;;;;;5023679;28;20477;-63
2022/03/01 12:40:41;;;;;;;;;;;8.60;57.80;;;;;;5032494;28;20033;-63
2022/03/01 12:43:10;;;;;;;9.90;4.50;;;8.70;58.60;;;;;;5051281;28;19911;-62
2022/03/01 12:45:39;;;;;;;7.45;4.28;;;8.70;57.60;;;;;;5037218;28;20028;-63